createdAt,value
2022-11-24T00:02:19.910Z,3.85
2022-11-24T00:05:21.337Z,3.58
2022-11-24T00:08:22.701Z,3.65
2022-11-24T00:11:27.106Z,3.67
2022-11-24T00:14:28.453Z,3.75
2022-11-24T00:17:29.782Z,4.40
2022-11-24T00:20:31.121Z,4.25
2022-11-24T00:23:32.982Z,3.80
2022-11-24T00:26:35.903Z,4.00
2022-11-24T00:29:37.583Z,3.95
2022-11-24T00:32:38.927Z,3.75
2022-11-24T00:35:40.254Z,3.70
2022-11-24T00:38:41.670Z,4.13
2022-11-24T00:41:43.225Z,3.90
2022-11-24T00:44:44.574Z,4.50
2022-11-24T00:47:45.928Z,4.18
2022-11-24T00:51:05.070Z,4.60
2022-11-24T00:54:06.474Z,4.10
2022-11-24T00:57:07.841Z,4.65
2022-11-24T01:00:09.607Z,4.60
2022-11-24T01:03:12.635Z,3.53
2022-11-24T01:06:17.075Z,4.35
2022-11-24T01:09:18.425Z,4.40
2022-11-24T01:12:19.868Z,4.38
2022-11-24T01:15:21.253Z,4.65
2022-11-24T01:18:22.596Z,4.38
2022-11-24T01:21:24.508Z,3.88
2022-11-24T01:24:25.852Z,4.43
2022-11-24T01:27:27.249Z,4.80
2022-11-24T01:30:28.648Z,5.05
2022-11-24T01:33:30.209Z,4.68
2022-11-24T01:36:31.630Z,4.20
2022-11-24T01:39:32.969Z,4.05
2022-11-24T01:42:46.743Z,4.88
2022-11-24T01:45:48.260Z,4.07
2022-11-24T01:49:08.301Z,4.55
2022-11-24T01:52:18.422Z,4.20
2022-11-24T01:55:46.158Z,4.45
2022-11-24T01:58:48.559Z,4.85
2022-11-24T02:01:51.637Z,4.20
2022-11-24T02:04:53.948Z,4.25
2022-11-24T02:07:59.604Z,5.70
2022-11-24T02:11:04.084Z,5.00
2022-11-24T02:14:07.457Z,4.63
2022-11-24T02:20:13.043Z,4.68
2022-11-24T02:26:33.858Z,4.93
2022-11-24T02:29:35.232Z,5.57
2022-11-24T02:32:40.026Z,4.78
2022-11-24T02:35:42.342Z,5.75
2022-11-24T02:38:43.694Z,4.70
2022-11-24T02:41:58.887Z,4.82
2022-11-24T02:45:01.155Z,5.40
2022-11-24T02:48:02.512Z,5.57
2022-11-24T02:51:04.032Z,4.53
2022-11-24T02:54:05.405Z,4.90
2022-11-24T02:57:06.752Z,4.97
2022-11-24T03:00:08.965Z,6.40
2022-11-24T03:03:10.397Z,5.35
2022-11-24T03:06:11.912Z,5.80
2022-11-24T03:09:13.352Z,5.82
2022-11-24T03:12:14.781Z,5.22
2022-11-24T03:15:16.189Z,5.05
2022-11-24T03:18:17.546Z,5.32
2022-11-24T03:21:19.305Z,5.18
2022-11-24T03:24:20.761Z,4.75
2022-11-24T03:27:22.087Z,5.22
2022-11-24T03:30:23.490Z,5.43
2022-11-24T03:33:24.838Z,5.80
2022-11-24T03:36:26.210Z,5.55
2022-11-24T03:39:27.558Z,5.20
2022-11-24T03:42:28.883Z,5.50
2022-11-24T03:45:45.547Z,5.80
2022-11-24T03:48:47.797Z,5.32
2022-11-24T03:51:49.728Z,5.68
2022-11-24T03:54:51.099Z,5.72
2022-11-24T03:57:52.469Z,5.63
2022-11-24T04:00:54.607Z,5.22
2022-11-24T04:03:55.948Z,5.63
2022-11-24T04:06:57.304Z,7.05
2022-11-24T04:09:58.641Z,6.82
2022-11-24T04:12:59.984Z,6.13
2022-11-24T04:16:05.651Z,6.32
2022-11-24T04:19:07.568Z,7.30
2022-11-24T04:22:08.941Z,6.47
2022-11-24T04:25:10.649Z,6.22
2022-11-24T04:28:11.990Z,6.60
2022-11-24T04:31:13.461Z,7.00
2022-11-24T04:34:14.974Z,7.07
2022-11-24T04:37:16.342Z,7.00
2022-11-24T04:40:17.763Z,6.65
2022-11-24T04:43:19.165Z,7.38
2022-11-24T04:46:20.566Z,6.85
2022-11-24T04:49:21.946Z,6.50
2022-11-24T04:52:24.700Z,8.07
2022-11-24T04:55:26.110Z,7.13
2022-11-24T04:58:27.558Z,7.10
2022-11-24T05:01:28.982Z,7.35
2022-11-24T05:04:30.413Z,7.15
2022-11-24T05:07:32.374Z,7.38
2022-11-24T05:10:34.259Z,7.97
2022-11-24T05:13:35.591Z,7.85
2022-11-24T05:16:36.969Z,7.75
2022-11-24T05:19:38.372Z,7.88
2022-11-24T05:22:39.773Z,8.60
2022-11-24T05:25:47.252Z,7.75
2022-11-24T05:28:49.050Z,8.48
2022-11-24T05:31:50.441Z,7.93
2022-11-24T05:34:51.780Z,8.10
2022-11-24T05:37:53.221Z,8.30
2022-11-24T05:40:54.584Z,9.18
2022-11-24T05:43:55.921Z,8.35
2022-11-24T05:46:57.328Z,8.02
2022-11-24T05:49:58.692Z,8.23
2022-11-24T05:53:05.121Z,8.10
2022-11-24T05:56:06.896Z,8.20
2022-11-24T05:59:09.964Z,8.80
2022-11-24T06:05:13.197Z,8.50
2022-11-24T06:08:15.013Z,9.07
2022-11-24T06:11:16.361Z,10.65
2022-11-24T06:14:17.724Z,10.80
2022-11-24T06:17:19.078Z,11.57
2022-11-24T06:20:20.489Z,9.73
2022-11-24T06:23:21.860Z,11.10
2022-11-24T06:26:23.289Z,9.32
2022-11-24T06:29:24.651Z,9.15
2022-11-24T06:32:26.029Z,10.73
2022-11-24T06:35:27.498Z,9.80
2022-11-24T06:38:29.259Z,9.90
2022-11-24T06:41:30.655Z,8.93
2022-11-24T06:44:32.320Z,9.93
2022-11-24T06:47:34.039Z,9.48
2022-11-24T06:50:35.480Z,10.00
2022-11-24T06:53:38.438Z,10.18
2022-11-24T06:56:39.868Z,9.68
2022-11-24T06:59:41.199Z,9.70
2022-11-24T07:02:45.917Z,9.35
2022-11-24T07:05:47.708Z,9.00
2022-11-24T07:08:49.643Z,9.48
2022-11-24T07:11:51.005Z,9.90
2022-11-24T07:14:52.364Z,9.98
2022-11-24T07:17:53.680Z,9.75
2022-11-24T07:20:55.436Z,10.32
2022-11-24T07:23:57.719Z,9.93
2022-11-24T07:26:59.060Z,9.52
2022-11-24T07:30:00.410Z,10.73
2022-11-24T07:33:03.038Z,10.07
2022-11-24T07:36:06.564Z,10.23
2022-11-24T07:39:07.892Z,10.50
2022-11-24T07:42:09.226Z,9.80
2022-11-24T07:45:10.837Z,10.50
2022-11-24T07:48:12.193Z,9.80
2022-11-24T07:51:13.539Z,10.70
2022-11-24T07:54:14.870Z,10.35
2022-11-24T07:57:16.204Z,9.93
2022-11-24T08:00:17.939Z,10.63
2022-11-24T08:03:19.307Z,10.13
2022-11-24T08:06:27.731Z,10.55
2022-11-24T08:09:33.915Z,10.63
2022-11-24T08:12:35.280Z,10.02
2022-11-24T08:15:36.639Z,11.77
2022-11-24T08:18:39.003Z,11.00
2022-11-24T08:21:40.384Z,11.15
2022-11-24T08:24:41.730Z,10.68
2022-11-24T08:27:43.076Z,10.23
2022-11-24T08:30:44.459Z,8.95
2022-11-24T08:33:46.548Z,9.57
2022-11-24T08:36:47.896Z,8.85
2022-11-24T08:39:49.279Z,9.00
2022-11-24T08:42:50.629Z,8.82
2022-11-24T08:45:52.084Z,8.65
2022-11-24T08:48:54.610Z,8.35
2022-11-24T08:51:57.812Z,8.27
2022-11-24T08:54:59.145Z,8.38
2022-11-24T08:58:00.506Z,7.97
2022-11-24T09:01:12.701Z,7.65
2022-11-24T09:04:14.148Z,6.80
2022-11-24T09:07:15.592Z,7.40
2022-11-24T09:10:17.379Z,7.88
2022-11-24T09:13:18.750Z,9.02
2022-11-24T09:16:23.169Z,7.15
2022-11-24T09:19:24.628Z,7.05
2022-11-24T09:22:25.933Z,5.90
2022-11-24T09:25:27.264Z,6.13
2022-11-24T09:28:28.593Z,6.38
2022-11-24T09:31:32.590Z,7.28
2022-11-24T09:34:34.042Z,7.10
2022-11-24T09:37:35.389Z,6.15
2022-11-24T09:40:36.757Z,7.07
2022-11-24T09:43:46.785Z,5.47
2022-11-24T09:47:13.261Z,6.20
2022-11-24T09:50:25.114Z,6.43
2022-11-24T09:54:04.986Z,6.30
2022-11-24T09:57:07.197Z,5.25
2022-11-24T10:00:15.126Z,5.35
2022-11-24T10:03:31.695Z,5.72
2022-11-24T10:06:44.211Z,5.65
2022-11-24T10:09:57.343Z,5.07
2022-11-24T10:13:20.879Z,5.22
2022-11-24T10:16:51.505Z,4.80
2022-11-24T10:20:09.264Z,4.57
2022-11-24T10:23:29.188Z,4.65
2022-11-24T10:26:47.275Z,4.82
2022-11-24T10:29:51.964Z,5.05
2022-11-24T10:33:01.336Z,5.47
2022-11-24T10:36:19.015Z,4.85
2022-11-24T10:39:52.882Z,4.72
2022-11-24T10:42:57.245Z,5.35
2022-11-24T10:46:10.877Z,5.07
2022-11-24T10:49:21.729Z,4.57
2022-11-24T10:52:24.920Z,5.88
2022-11-24T10:55:26.317Z,13.73
2022-11-24T10:58:38.431Z,6.88
2022-11-24T11:01:40.088Z,6.25
2022-11-24T11:04:41.433Z,5.75
2022-11-24T11:07:42.848Z,5.38
2022-11-24T11:10:47.059Z,4.90
2022-11-24T11:13:49.573Z,4.93
2022-11-24T11:16:53.753Z,5.70
2022-11-24T11:20:02.921Z,5.18
2022-11-24T11:23:16.220Z,5.72
2022-11-24T11:26:26.517Z,5.70
2022-11-24T11:36:22.411Z,6.45
2022-11-24T11:39:28.992Z,5.32
2022-11-24T11:43:03.868Z,5.15
2022-11-24T11:46:11.349Z,5.82
2022-11-24T11:49:13.746Z,6.18
2022-11-24T11:52:37.003Z,5.85
2022-11-24T11:55:53.486Z,6.88
2022-11-24T11:59:27.331Z,6.45
2022-11-24T12:02:28.750Z,9.13
2022-11-24T12:05:43.336Z,6.63
2022-11-24T12:09:21.639Z,7.20
2022-11-24T12:12:55.411Z,5.53
2022-11-24T12:16:05.887Z,5.65
2022-11-24T12:19:34.186Z,5.85
2022-11-24T12:22:53.712Z,6.15
2022-11-24T12:26:09.062Z,6.13
2022-11-24T12:29:43.609Z,5.40
2022-11-24T12:32:47.667Z,5.75
2022-11-24T12:35:53.555Z,8.77
2022-11-24T12:39:05.317Z,5.82
2022-11-24T12:42:19.926Z,6.97
2022-11-24T12:45:39.241Z,5.25
2022-11-24T12:49:01.309Z,5.40
2022-11-24T12:52:23.901Z,5.75
2022-11-24T12:55:27.618Z,5.32
2022-11-24T12:58:39.649Z,5.70
2022-11-24T13:01:53.464Z,5.45
2022-11-24T13:05:12.841Z,5.53
2022-11-24T13:08:14.922Z,5.65
2022-11-24T13:11:22.119Z,4.53
2022-11-24T13:14:30.148Z,5.40
2022-11-24T13:17:43.527Z,5.00
2022-11-24T13:20:54.649Z,9.03
2022-11-24T13:24:21.414Z,6.40
2022-11-24T13:27:28.171Z,6.40
2022-11-24T13:30:35.405Z,5.90
2022-11-24T13:33:37.518Z,5.53
2022-11-24T13:36:52.452Z,5.32
2022-11-24T13:39:57.546Z,5.20
2022-11-24T13:42:58.856Z,6.28
2022-11-24T13:46:00.195Z,5.10
2022-11-24T13:49:01.503Z,5.03
2022-11-24T13:52:40.201Z,5.68
2022-11-24T13:56:19.951Z,6.95
2022-11-24T13:59:33.688Z,6.00
2022-11-24T14:02:35.172Z,5.55
2022-11-24T14:05:39.271Z,5.93
2022-11-24T14:08:40.724Z,4.78
2022-11-24T14:11:42.315Z,5.43
2022-11-24T14:14:46.019Z,5.38
2022-11-24T14:17:47.361Z,5.25
2022-11-24T14:20:48.802Z,6.05
2022-11-24T14:24:08.963Z,6.45
2022-11-24T14:27:17.469Z,5.93
2022-11-24T14:30:22.293Z,6.07
2022-11-24T14:33:23.660Z,7.07
2022-11-24T14:36:25.010Z,6.65
2022-11-24T14:39:27.554Z,6.15
2022-11-24T14:42:28.988Z,7.57
2022-11-24T14:45:37.493Z,6.50
2022-11-24T14:48:47.713Z,6.65
2022-11-24T14:51:58.187Z,6.65
2022-11-24T14:55:17.325Z,7.95
2022-11-24T14:58:31.689Z,6.38
2022-11-24T15:01:34.475Z,6.40
2022-11-24T15:05:02.577Z,6.32
2022-11-24T15:08:04.968Z,7.25
2022-11-24T15:11:07.423Z,7.15
2022-11-24T15:14:31.563Z,6.77
2022-11-24T15:17:33.497Z,9.82
2022-11-24T15:20:46.055Z,7.38
2022-11-24T15:24:14.821Z,8.48
2022-11-24T15:27:16.255Z,8.75
2022-11-24T15:30:17.710Z,9.05
2022-11-24T15:33:19.926Z,9.77
2022-11-24T15:36:21.317Z,10.63
2022-11-24T15:39:22.675Z,10.48
2022-11-24T15:42:24.016Z,11.98
2022-11-24T15:45:26.176Z,11.25
2022-11-24T15:48:28.615Z,9.25
2022-11-24T15:51:30.472Z,10.90
2022-11-24T15:54:32.098Z,9.43
2022-11-24T15:57:34.088Z,10.60
2022-11-24T16:00:35.448Z,9.13
2022-11-24T16:03:52.194Z,9.10
2022-11-24T16:06:53.532Z,9.05
2022-11-24T16:09:54.869Z,11.38
2022-11-24T16:12:56.182Z,10.07
2022-11-24T16:15:57.600Z,11.85
2022-11-24T16:18:58.965Z,9.35
2022-11-24T16:22:00.314Z,10.65
2022-11-24T16:25:01.650Z,9.60
2022-11-24T16:28:03.054Z,9.68
2022-11-24T16:31:04.493Z,10.27
2022-11-24T16:34:05.905Z,10.27
2022-11-24T16:37:07.283Z,11.65
2022-11-24T16:40:09.134Z,11.10
2022-11-24T16:43:10.651Z,10.88
2022-11-24T16:46:20.891Z,10.55
2022-11-24T16:49:22.307Z,9.50
2022-11-24T16:52:23.666Z,11.70
2022-11-24T16:55:25.015Z,11.48
2022-11-24T16:58:26.428Z,11.63
2022-11-24T17:01:27.859Z,12.15
2022-11-24T17:04:29.227Z,15.38
2022-11-24T17:07:30.670Z,14.75
2022-11-24T17:10:32.050Z,12.07
2022-11-24T17:13:33.891Z,12.57
2022-11-24T17:16:37.352Z,13.15
2022-11-24T17:19:38.732Z,13.55
2022-11-24T17:22:40.069Z,13.18
2022-11-24T17:25:41.479Z,12.85
2022-11-24T17:28:43.788Z,13.30
2022-11-24T17:31:45.489Z,12.48
2022-11-24T17:34:46.858Z,11.73
2022-11-24T17:37:48.201Z,12.32
2022-11-24T17:40:49.561Z,11.43
2022-11-24T17:43:52.709Z,12.05
2022-11-24T17:46:54.096Z,11.48
2022-11-24T17:49:55.482Z,12.50
2022-11-24T17:52:56.805Z,9.98
2022-11-24T17:55:59.605Z,8.88
2022-11-24T17:59:00.993Z,8.57
2022-11-24T18:02:02.392Z,8.32
2022-11-24T18:05:04.069Z,8.70
2022-11-24T18:08:05.648Z,9.02
2022-11-24T18:11:13.330Z,8.63
2022-11-24T18:14:14.688Z,8.07
2022-11-24T18:17:16.050Z,8.75
2022-11-24T18:20:17.464Z,7.05
2022-11-24T18:23:18.798Z,7.90
2022-11-24T18:26:20.167Z,8.27
2022-11-24T18:29:21.479Z,8.43
2022-11-24T18:32:22.815Z,8.05
2022-11-24T18:35:24.167Z,8.07
2022-11-24T18:38:28.880Z,8.82
2022-11-24T18:41:30.503Z,8.00
2022-11-24T18:44:32.107Z,8.35
2022-11-24T18:47:33.812Z,8.48
2022-11-24T18:50:35.196Z,8.02
2022-11-24T18:53:36.549Z,7.95
2022-11-24T18:56:37.932Z,8.20
2022-11-24T18:59:39.291Z,9.73
2022-11-24T19:02:40.680Z,9.70
2022-11-24T19:05:42.077Z,11.45
2022-11-24T19:08:43.717Z,11.00
2022-11-24T19:11:46.771Z,11.07
2022-11-24T19:14:48.093Z,8.75
2022-11-24T19:17:49.480Z,9.63
2022-11-24T19:20:50.859Z,9.05
2022-11-24T19:23:52.713Z,9.60
2022-11-24T19:26:54.418Z,9.45
2022-11-24T19:29:55.745Z,9.85
2022-11-24T19:32:57.073Z,11.48
2022-11-24T19:36:06.306Z,11.73
2022-11-24T19:39:07.625Z,11.23
2022-11-24T19:42:08.963Z,11.65
2022-11-24T19:45:10.543Z,11.18
2022-11-24T19:48:11.909Z,11.73
2022-11-24T19:51:16.405Z,11.20
2022-11-24T19:54:17.814Z,11.13
2022-11-24T19:57:19.193Z,10.95
2022-11-24T20:00:20.764Z,9.77
2022-11-24T20:03:22.162Z,11.13
2022-11-24T20:06:23.524Z,11.20
2022-11-24T20:09:24.858Z,10.80
2022-11-24T20:12:26.180Z,9.23
2022-11-24T20:15:27.523Z,9.82
2022-11-24T20:18:30.013Z,10.55
2022-11-24T20:21:32.248Z,11.37
2022-11-24T20:24:33.747Z,10.57
2022-11-24T20:27:35.268Z,11.48
2022-11-24T20:30:36.624Z,11.40
2022-11-24T20:33:38.986Z,11.60
2022-11-24T20:36:42.500Z,14.15
2022-11-24T20:39:43.840Z,14.60
2022-11-24T20:42:45.236Z,13.52
2022-11-24T20:45:46.667Z,13.55
2022-11-24T20:48:48.916Z,14.35
2022-11-24T20:51:50.285Z,14.45
2022-11-24T20:54:51.617Z,14.43
2022-11-24T20:57:53.084Z,12.95
2022-11-24T21:00:54.536Z,14.90
2022-11-24T21:03:58.606Z,15.25
2022-11-24T21:06:59.972Z,14.88
2022-11-24T21:10:01.695Z,13.95
2022-11-24T21:13:03.128Z,14.38
2022-11-24T21:16:14.068Z,14.43
2022-11-24T21:19:15.897Z,14.23
2022-11-24T21:22:17.227Z,15.45
2022-11-24T21:25:18.582Z,16.65
2022-11-24T21:28:19.901Z,17.33
2022-11-24T21:31:21.566Z,16.98
2022-11-24T21:34:23.003Z,16.35
2022-11-24T21:37:24.362Z,17.73
2022-11-24T21:40:25.796Z,17.33
2022-11-24T21:43:28.491Z,17.42
2022-11-24T21:46:30.283Z,15.13
2022-11-24T21:49:31.661Z,15.63
2022-11-24T21:52:33.072Z,16.60
2022-11-24T21:55:34.439Z,16.50
2022-11-24T21:58:35.803Z,15.38
2022-11-24T22:01:37.190Z,15.73
2022-11-24T22:04:38.543Z,15.93
2022-11-24T22:07:39.939Z,17.35
2022-11-24T22:10:41.374Z,19.95
2022-11-24T22:13:43.727Z,20.85
2022-11-24T22:16:45.199Z,16.30
2022-11-24T22:19:46.599Z,14.90
2022-11-24T22:22:47.972Z,14.98
2022-11-24T22:25:49.304Z,15.85
2022-11-24T22:28:51.618Z,15.32
2022-11-24T22:31:53.045Z,16.90
2022-11-24T22:34:54.517Z,15.52
2022-11-24T22:37:55.893Z,15.88
2022-11-24T22:41:05.309Z,16.67
2022-11-24T22:44:06.677Z,17.20
2022-11-24T22:47:08.070Z,16.42
2022-11-24T22:50:09.853Z,16.23
2022-11-24T22:53:11.353Z,17.70
2022-11-24T22:56:12.742Z,18.13
2022-11-24T22:59:14.099Z,16.85
2022-11-24T23:02:15.486Z,16.67
2022-11-24T23:05:20.558Z,17.63
2022-11-24T23:08:22.230Z,17.33
2022-11-24T23:11:33.817Z,16.75
2022-11-24T23:14:37.876Z,17.80
2022-11-24T23:17:39.270Z,17.92
2022-11-24T23:20:40.658Z,19.00
2022-11-24T23:23:42.610Z,17.42
2022-11-24T23:26:43.946Z,19.20
2022-11-24T23:29:45.284Z,18.60
2022-11-24T23:32:46.634Z,17.60
2022-11-24T23:35:48.053Z,17.95
2022-11-24T23:38:49.570Z,19.40
2022-11-24T23:41:50.926Z,17.48
2022-11-24T23:44:52.267Z,17.55
2022-11-24T23:47:53.878Z,19.60
2022-11-24T23:50:55.280Z,19.52
2022-11-24T23:53:57.087Z,19.38
2022-11-24T23:56:58.399Z,19.58
2022-11-24T23:59:59.747Z,19.88
